Lanesboro, Iowa
Current Conditions -  °F | °C
As of 8:15 PM on Friday 28 Nov 2014 (Local Time) from KCIN Reporting Station
Clear Clear  
Wind Chill: 25°   Ceiling: Unl
Heat Index: 30°   Visibility: 10mi
Dew Point: 30°   Wind: 5mph
Humidity: 100%   Direction: 110°ESE
Pressure: 29.67"   Gusts: NA
Location:  42.18°N, 94.69°W
Report Text: KCIN 290215Z AUTO 11004KT 10SM CLR M01/M01 A2967 RMK AO2
Loading
Personal Weather Stations






























Interactive Weather Map New forecast layout! Learn more

10-Day Weather Forecast

Advertisements
Track Severe Weather on mobile